Time;durP1;ratioP1;P1;durP2;ratioP2;P2;SDS_P1;SDS_P2;PMS_P1;PMS_P2;Temp;Humidity;BMP_temperature;BMP_pressure;BME280_temperature;BME280_humidity;BME280_pressure;Samples;Min_cycle;Max_cycle;Signal;HPM_P1;HPM_P2
2022/07/26 00:00:22;;;;;;;5.50;1.90;;;21.00;62.60;;;;;;5088312;28;20032;-83
2022/07/26 00:02:47;;;;;;;3.90;1.65;;;20.90;62.70;;;;;;5088344;28;20055;-82
2022/07/26 00:05:13;;;;;;;6.25;1.77;;;20.90;62.90;;;;;;5090031;28;20135;-82
2022/07/26 00:07:39;;;;;;;4.72;2.05;;;20.90;63.20;;;;;;5088947;28;20020;-82
2022/07/26 00:10:05;;;;;;;2.47;1.38;;;20.80;63.00;;;;;;5088528;28;20539;-81
2022/07/26 00:12:32;;;;;;;2.97;1.75;;;20.80;62.90;;;;;;5089309;28;20411;-82
2022/07/26 00:14:58;;;;;;;4.07;2.17;;;20.70;63.10;;;;;;5088068;28;20024;-81
2022/07/26 00:17:24;;;;;;;4.30;1.70;;;20.70;63.50;;;;;;5089561;28;20035;-81
2022/07/26 00:19:49;;;;;;;5.50;1.77;;;20.70;64.10;;;;;;5088499;28;20028;-81
2022/07/26 00:22:33;;;;;;;3.03;1.65;;;20.70;64.40;;;;;;5089282;28;20024;-81
2022/07/26 00:24:59;;;;;;;2.35;1.38;;;20.70;64.30;;;;;;5089184;28;20059;-82
2022/07/26 00:27:25;;;;;;;6.35;1.90;;;20.60;64.20;;;;;;5088068;28;20445;-83
2022/07/26 00:29:50;;;;;;;3.65;2.08;;;20.70;64.90;;;;;;5088235;28;20045;-81
2022/07/26 00:32:16;;;;;;;4.65;1.83;;;20.60;65.40;;;;;;5088224;28;20533;-80
2022/07/26 00:34:42;;;;;;;9.15;1.48;;;20.50;65.20;;;;;;5088689;28;20156;-80
2022/07/26 00:37:08;;;;;;;3.42;1.90;;;20.50;65.90;;;;;;5087686;28;20476;-81
2022/07/26 00:39:34;;;;;;;3.75;1.80;;;20.40;66.40;;;;;;5088099;28;20042;-78
2022/07/26 00:41:59;;;;;;;3.55;1.48;;;20.40;66.00;;;;;;5086601;28;20032;-81
2022/07/26 00:44:43;;;;;;;5.03;1.83;;;20.40;65.90;;;;;;5089380;28;20102;-81
2022/07/26 00:47:09;;;;;;;6.63;1.90;;;20.40;66.00;;;;;;5087876;28;20145;-81
2022/07/26 00:49:34;;;;;;;5.60;1.52;;;20.40;66.00;;;;;;5089351;28;20484;-81
2022/07/26 00:52:00;;;;;;;4.70;2.13;;;20.30;66.40;;;;;;5087722;28;20039;-82
2022/07/26 00:54:26;;;;;;;7.40;1.70;;;20.30;66.20;;;;;;5087684;28;20054;-82
2022/07/26 00:56:53;;;;;;;3.50;1.70;;;20.30;66.60;;;;;;5087258;28;20024;-82
2022/07/26 00:59:19;;;;;;;2.83;2.03;;;20.30;66.30;;;;;;5087952;28;20024;-80
2022/07/26 01:01:44;;;;;;;4.97;1.80;;;20.30;65.80;;;;;;5088452;28;20047;-82
2022/07/26 01:04:10;;;;;;;8.02;2.20;;;20.30;65.60;;;;;;5088398;28;20135;-81
2022/07/26 01:06:36;;;;;;;3.17;1.88;;;20.30;65.70;;;;;;5087602;28;20114;-81
2022/07/26 01:09:04;;;;;;;7.55;1.80;;;20.40;66.10;;;;;;5088109;28;20031;-81
2022/07/26 01:11:30;;;;;;;4.15;1.45;;;20.40;66.30;;;;;;5087175;28;20067;-82
2022/07/26 01:13:56;;;;;;;9.68;2.22;;;20.30;67.30;;;;;;5087188;28;20024;-82
2022/07/26 01:16:22;;;;;;;3.22;2.05;;;20.30;66.70;;;;;;5087944;28;20132;-81
2022/07/26 01:18:48;;;;;;;3.03;1.63;;;20.30;66.90;;;;;;5087614;28;20046;-82
2022/07/26 01:21:14;;;;;;;2.97;1.80;;;20.30;67.20;;;;;;5088236;28;20468;-82
2022/07/26 01:23:41;;;;;;;5.07;1.83;;;20.30;67.20;;;;;;5087346;28;20119;-82
2022/07/26 01:26:07;;;;;;;4.07;2.40;;;20.20;67.30;;;;;;5086791;28;20036;-82
2022/07/26 01:28:36;;;;;;;4.78;1.73;;;20.20;67.50;;;;;;5087081;28;20442;-83
2022/07/26 01:31:06;;;;;;;3.83;2.15;;;20.10;67.90;;;;;;5088773;28;20542;-81
2022/07/26 01:33:33;;;;;;;4.18;2.05;;;20.10;67.90;;;;;;5088491;28;20023;-83
2022/07/26 01:36:00;;;;;;;3.55;1.67;;;20.10;67.90;;;;;;5087240;28;20028;-81
2022/07/26 01:38:26;;;;;;;2.63;1.52;;;20.00;68.10;;;;;;5086993;28;20030;-81
2022/07/26 01:40:52;;;;;;;4.43;1.67;;;20.00;68.50;;;;;;5087870;28;20032;-81
2022/07/26 01:43:18;;;;;;;5.18;2.00;;;20.00;68.60;;;;;;5086969;28;20027;-83
2022/07/26 01:45:44;;;;;;;6.15;1.70;;;20.00;68.70;;;;;;5086715;28;20031;-82
2022/07/26 01:48:10;;;;;;;5.53;1.88;;;19.90;68.50;;;;;;5088244;28;20615;-82
2022/07/26 01:50:36;;;;;;;2.88;1.45;;;19.90;68.90;;;;;;5087003;28;20035;-83
2022/07/26 01:53:02;;;;;;;3.92;1.60;;;19.90;69.00;;;;;;5086079;28;20096;-83
2022/07/26 01:55:27;;;;;;;4.20;1.92;;;19.90;69.20;;;;;;5086769;28;20028;-82
2022/07/26 01:57:53;;;;;;;4.63;1.83;;;19.90;69.30;;;;;;5085716;28;20455;-80
2022/07/26 02:00:19;;;;;;;6.05;2.08;;;19.80;69.10;;;;;;5086180;28;20028;-81
2022/07/26 02:02:45;;;;;;;2.97;1.60;;;19.80;69.10;;;;;;5087341;28;20044;-82
2022/07/26 02:05:11;;;;;;;2.85;1.67;;;19.80;69.10;;;;;;5087457;28;20036;-82
2022/07/26 02:07:47;;;;;;;2.63;1.48;;;19.80;69.80;;;;;;5086436;28;20024;-81
2022/07/26 02:10:14;;;;;;;3.97;1.52;;;19.80;69.90;;;;;;5086243;28;20063;-82
2022/07/26 02:12:40;;;;;;;2.05;1.40;;;19.80;69.90;;;;;;5091134;28;20480;-81
2022/07/26 02:15:08;;;;;;;3.85;1.88;;;19.80;69.90;;;;;;5086162;28;20031;-80
2022/07/26 02:17:33;;;;;;;2.83;1.85;;;19.80;70.40;;;;;;5087618;28;20063;-80
2022/07/26 02:19:59;;;;;;;4.75;1.63;;;19.70;71.00;;;;;;5086362;28;20056;-80
2022/07/26 02:22:25;;;;;;;4.43;1.95;;;19.70;70.60;;;;;;5087440;28;20066;-80
2022/07/26 02:24:50;;;;;;;4.28;1.63;;;19.70;70.60;;;;;;5085510;28;20032;-81
2022/07/26 02:27:16;;;;;;;4.72;1.90;;;19.70;70.10;;;;;;5086199;28;20472;-81
2022/07/26 02:29:42;;;;;;;3.42;1.98;;;19.70;70.40;;;;;;5087173;28;20028;-81
2022/07/26 02:32:09;;;;;;;3.85;1.73;;;19.80;70.70;;;;;;5086283;28;20438;-81
2022/07/26 02:34:35;;;;;;;3.17;1.58;;;19.70;70.90;;;;;;5087559;28;20391;-81
2022/07/26 02:37:01;;;;;;;2.55;1.38;;;19.70;71.30;;;;;;5087595;28;20034;-81
2022/07/26 02:39:27;;;;;;;3.53;2.03;;;19.60;71.60;;;;;;5085972;28;20032;-80
2022/07/26 02:41:57;;;;;;;3.08;1.70;;;19.60;71.80;;;;;;5085010;28;20032;-81
2022/07/26 02:44:24;;;;;;;2.15;1.60;;;19.60;73.10;;;;;;5085855;28;20113;-80
2022/07/26 02:46:50;;;;;;;3.47;1.77;;;19.60;73.10;;;;;;5086146;28;20445;-80
2022/07/26 02:49:16;;;;;;;3.00;1.85;;;19.60;72.80;;;;;;5085712;28;20551;-81
2022/07/26 02:51:41;;;;;;;6.00;2.03;;;19.60;73.00;;;;;;5085416;28;20027;-81
2022/07/26 02:54:07;;;;;;;5.47;2.80;;;19.50;73.60;;;;;;5086616;28;20106;-81
2022/07/26 02:56:33;;;;;;;6.95;1.90;;;19.50;74.20;;;;;;5085555;28;20058;-79
2022/07/26 02:58:58;;;;;;;10.23;2.55;;;19.50;74.50;;;;;;5085706;28;20055;-80
2022/07/26 03:01:24;;;;;;;4.63;1.70;;;19.50;74.50;;;;;;5086304;28;20085;-81
2022/07/26 03:03:50;;;;;;;5.22;2.13;;;19.40;74.50;;;;;;5085246;28;20546;-81
2022/07/26 03:06:16;;;;;;;4.80;2.08;;;19.40;74.50;;;;;;5085690;28;20028;-80
2022/07/26 03:08:41;;;;;;;5.60;1.70;;;19.40;74.40;;;;;;5086468;28;20019;-79
2022/07/26 03:11:07;;;;;;;2.92;1.60;;;19.40;75.70;;;;;;5085487;28;20793;-81
2022/07/26 03:13:33;;;;;;;7.63;2.45;;;19.40;75.10;;;;;;5085505;28;20232;-80
2022/07/26 03:15:59;;;;;;;3.53;1.77;;;19.40;75.30;;;;;;5085165;28;20027;-79
2022/07/26 03:18:24;;;;;;;4.85;2.22;;;19.40;76.60;;;;;;5086632;28;20109;-80
2022/07/26 03:20:50;;;;;;;8.85;2.10;;;19.40;77.00;;;;;;5081539;28;20031;-81
2022/07/26 03:23:16;;;;;;;5.47;2.10;;;19.40;77.30;;;;;;5065022;28;20055;-81
2022/07/26 03:25:42;;;;;;;7.90;2.03;;;19.40;77.50;;;;;;5064302;28;20831;-81
2022/07/26 03:28:08;;;;;;;5.82;1.90;;;19.40;78.00;;;;;;5065618;28;20063;-81
2022/07/26 03:30:34;;;;;;;4.32;2.00;;;19.40;78.10;;;;;;5084938;28;20060;-81
2022/07/26 03:32:59;;;;;;;3.75;1.58;;;19.40;78.20;;;;;;5088736;28;20027;-80
2022/07/26 03:35:25;;;;;;;3.53;2.08;;;19.40;78.20;;;;;;5090011;28;20074;-79
2022/07/26 03:37:51;;;;;;;8.95;1.73;;;19.40;78.90;;;;;;5091000;28;20629;-81
2022/07/26 03:40:18;;;;;;;2.97;1.70;;;19.50;79.40;;;;;;5088787;28;20115;-80
2022/07/26 03:42:45;;;;;;;5.30;1.83;;;19.50;80.10;;;;;;5089681;28;20032;-81
2022/07/26 03:45:11;;;;;;;2.85;1.83;;;19.50;80.00;;;;;;5088752;28;20385;-81
2022/07/26 03:47:37;;;;;;;8.50;1.90;;;19.50;79.50;;;;;;5089473;28;20028;-81
2022/07/26 03:50:05;;;;;;;7.07;2.25;;;19.60;79.20;;;;;;5089322;28;20492;-81
2022/07/26 03:52:31;;;;;;;7.80;1.92;;;19.60;79.50;;;;;;5089104;28;20156;-81
2022/07/26 03:54:57;;;;;;;5.10;2.45;;;19.70;79.80;;;;;;5088850;28;20450;-80
2022/07/26 03:57:23;;;;;;;5.82;2.20;;;19.70;79.40;;;;;;5089012;28;20027;-82
2022/07/26 03:59:48;;;;;;;6.10;1.58;;;19.80;79.20;;;;;;5088650;28;20032;-80
2022/07/26 04:02:14;;;;;;;5.20;2.00;;;19.80;79.00;;;;;;5090185;28;20389;-79
2022/07/26 04:04:39;;;;;;;2.75;1.60;;;19.90;79.30;;;;;;5088027;28;20060;-80
2022/07/26 04:07:06;;;;;;;4.03;1.80;;;20.00;79.10;;;;;;5090161;28;20535;-80
2022/07/26 04:09:31;;;;;;;5.13;2.42;;;20.10;79.50;;;;;;5087955;28;20585;-79
2022/07/26 04:11:57;;;;;;;4.88;1.85;;;20.20;79.20;;;;;;5088699;28;20024;-79
2022/07/26 04:14:23;;;;;;;3.80;1.58;;;20.40;79.00;;;;;;5089770;28;20040;-81
2022/07/26 04:16:49;;;;;;;3.47;1.90;;;20.50;78.50;;;;;;5089736;28;20101;-79
2022/07/26 04:19:14;;;;;;;4.40;1.80;;;20.70;76.40;;;;;;5089781;28;20024;-79
2022/07/26 04:21:40;;;;;;;4.38;2.05;;;20.80;76.60;;;;;;5089411;28;20028;-79
2022/07/26 04:24:06;;;;;;;4.38;1.77;;;20.90;76.70;;;;;;5089594;28;20036;-79
2022/07/26 04:26:32;;;;;;;3.97;1.70;;;21.20;75.60;;;;;;5088403;28;20036;-78
2022/07/26 04:28:57;;;;;;;2.42;1.65;;;21.40;75.40;;;;;;5089621;28;20036;-80
2022/07/26 04:31:23;;;;;;;3.00;1.95;;;21.50;74.80;;;;;;5088302;28;20440;-80
2022/07/26 04:33:50;;;;;;;10.48;2.40;;;21.90;74.20;;;;;;5088895;28;20560;-78
2022/07/26 04:36:16;;;;;;;8.48;1.73;;;22.20;74.30;;;;;;5087891;28;20488;-79
2022/07/26 04:38:41;;;;;;;2.95;2.15;;;22.40;73.40;;;;;;5088169;28;20028;-79
2022/07/26 04:41:07;;;;;;;6.82;1.77;;;22.60;73.10;;;;;;5086971;28;20028;-79
2022/07/26 04:43:33;;;;;;;7.45;1.83;;;22.70;72.80;;;;;;5086914;28;20051;-79
2022/07/26 04:45:59;;;;;;;3.42;2.03;;;22.90;71.80;;;;;;5088045;28;20040;-80
2022/07/26 04:48:25;;;;;;;4.68;2.35;;;23.00;71.10;;;;;;5089034;28;20043;-79
2022/07/26 04:50:51;;;;;;;3.60;1.95;;;23.10;71.50;;;;;;5089442;28;20124;-79
2022/07/26 04:53:16;;;;;;;7.72;2.25;;;23.30;71.90;;;;;;5087182;28;20016;-77
2022/07/26 04:55:42;;;;;;;7.28;1.80;;;23.50;71.60;;;;;;5088801;28;20035;-80
2022/07/26 04:58:09;;;;;;;4.60;2.22;;;23.60;71.10;;;;;;5089385;28;20023;-80
2022/07/26 05:00:35;;;;;;;8.77;2.45;;;23.80;70.70;;;;;;5088935;28;20089;-78
2022/07/26 05:03:02;;;;;;;5.13;2.63;;;23.90;71.00;;;;;;5087722;28;20055;-78
2022/07/26 05:05:30;;;;;;;7.47;1.88;;;24.00;71.00;;;;;;5087438;28;20061;-78
2022/07/26 05:07:58;;;;;;;6.07;1.95;;;24.20;70.60;;;;;;5089052;28;20524;-79
2022/07/26 05:10:30;;;;;;;3.78;1.90;;;24.30;69.70;;;;;;5086816;28;20039;-80
2022/07/26 05:12:56;;;;;;;9.75;2.10;;;24.50;68.80;;;;;;5088427;28;20039;-83
2022/07/26 05:15:22;;;;;;;8.23;1.65;;;24.70;68.00;;;;;;5087942;28;20020;-83
2022/07/26 05:17:47;;;;;;;3.88;1.50;;;24.90;67.50;;;;;;5086945;28;20032;-83
2022/07/26 05:20:15;;;;;;;9.07;2.20;;;25.10;66.70;;;;;;5089625;28;20031;-80
2022/07/26 05:22:41;;;;;;;5.03;2.03;;;25.30;66.10;;;;;;5088407;28;20429;-80
2022/07/26 05:25:07;;;;;;;5.30;2.28;;;25.60;65.60;;;;;;5089095;28;20024;-80
2022/07/26 05:27:33;;;;;;;10.85;2.35;;;25.80;65.50;;;;;;5087137;28;20420;-81
2022/07/26 05:29:59;;;;;;;5.18;1.88;;;25.80;64.50;;;;;;5087626;28;20563;-79
2022/07/26 05:32:26;;;;;;;7.72;2.47;;;26.00;64.30;;;;;;5087903;28;20138;-78
2022/07/26 05:34:52;;;;;;;2.90;1.88;;;26.20;62.00;;;;;;5087117;28;20032;-79
2022/07/26 05:37:18;;;;;;;7.70;1.85;;;26.50;60.20;;;;;;5087075;28;20052;-80
2022/07/26 05:39:44;;;;;;;4.10;1.88;;;26.70;59.30;;;;;;5086963;28;20028;-79
2022/07/26 05:42:10;;;;;;;4.65;1.92;;;26.80;58.60;;;;;;5087683;28;20031;-79
2022/07/26 05:44:35;;;;;;;3.63;1.70;;;26.90;58.50;;;;;;5086559;28;20074;-81
2022/07/26 05:47:01;;;;;;;10.68;2.30;;;27.00;59.10;;;;;;5086895;28;20063;-78
2022/07/26 05:49:27;;;;;;;7.55;1.98;;;27.20;57.70;;;;;;5087968;28;20030;-80
2022/07/26 05:51:52;;;;;;;5.30;1.60;;;27.40;56.50;;;;;;5087085;28;20081;-81
2022/07/26 05:54:20;;;;;;;3.58;1.63;;;27.70;56.50;;;;;;5087238;28;20202;-80
2022/07/26 05:56:46;;;;;;;3.58;1.58;;;28.10;55.80;;;;;;5087868;28;20077;-81
2022/07/26 05:59:12;;;;;;;7.90;1.90;;;29.10;54.50;;;;;;5085916;28;20409;-79
2022/07/26 06:01:37;;;;;;;3.25;1.42;;;29.90;51.60;;;;;;5088346;28;20031;-81
2022/07/26 06:04:03;;;;;;;6.30;1.88;;;30.30;49.60;;;;;;5086246;28;20187;-79
2022/07/26 06:06:29;;;;;;;4.60;1.73;;;30.30;49.10;;;;;;5086266;28;20027;-79
2022/07/26 06:08:55;;;;;;;2.80;1.83;;;30.10;48.20;;;;;;5086841;28;20491;-77
2022/07/26 06:11:20;;;;;;;6.82;1.90;;;29.70;48.30;;;;;;5086287;28;20020;-79
2022/07/26 06:13:46;;;;;;;4.05;2.38;;;29.40;48.80;;;;;;5085538;28;20080;-80
2022/07/26 06:16:12;;;;;;;6.03;1.92;;;29.30;49.60;;;;;;5088034;28;20513;-79
2022/07/26 06:18:38;;;;;;;5.43;2.00;;;29.60;49.20;;;;;;5087625;28;20020;-81
2022/07/26 06:21:04;;;;;;;10.48;2.67;;;30.60;48.10;;;;;;5087638;28;20034;-80
2022/07/26 06:23:29;;;;;;;6.03;2.30;;;32.10;45.80;;;;;;5086691;28;20035;-80
2022/07/26 06:25:55;;;;;;;6.20;1.65;;;33.50;42.30;;;;;;5086213;28;20032;-79
2022/07/26 06:28:21;;;;;;;10.93;2.22;;;34.30;40.70;;;;;;5086799;28;20051;-79
2022/07/26 06:30:46;;;;;;;5.97;2.60;;;34.70;39.50;;;;;;5087510;28;20109;-80
2022/07/26 06:33:12;;;;;;;4.45;2.33;;;35.30;37.80;;;;;;5085740;28;20115;-80
2022/07/26 06:35:38;;;;;;;11.95;2.42;;;35.90;35.70;;;;;;5085632;28;20461;-81
2022/07/26 06:38:05;;;;;;;12.05;2.13;;;36.60;34.90;;;;;;5085418;28;20898;-80
2022/07/26 06:40:32;;;;;;;8.63;1.88;;;37.20;34.00;;;;;;5086007;28;20555;-80
2022/07/26 06:42:58;;;;;;;9.57;2.40;;;37.70;32.40;;;;;;5085659;28;20031;-79
2022/07/26 06:45:24;;;;;;;9.43;2.17;;;36.90;32.00;;;;;;5086078;28;20130;-79
2022/07/26 06:47:50;;;;;;;10.52;1.88;;;36.40;31.90;;;;;;5085006;28;20157;-80
2022/07/26 06:50:15;;;;;;;5.43;2.08;;;35.80;31.60;;;;;;5084838;28;20032;-80
2022/07/26 06:52:41;;;;;;;4.95;2.10;;;35.00;33.40;;;;;;5085369;28;20012;-78
2022/07/26 06:55:07;;;;;;;5.75;2.28;;;34.60;33.10;;;;;;5085817;28;20027;-78
2022/07/26 06:57:34;;;;;;;4.07;2.05;;;34.90;33.30;;;;;;5086624;28;20687;-79
2022/07/26 07:00:01;;;;;;;8.43;1.95;;;35.50;32.90;;;;;;5086253;28;20025;-79
2022/07/26 07:02:26;;;;;;;6.22;2.13;;;36.30;31.90;;;;;;5085752;28;20499;-80
2022/07/26 07:04:52;;;;;;;6.35;2.20;;;36.80;30.90;;;;;;5084703;28;20043;-80
2022/07/26 07:07:18;;;;;;;5.53;2.33;;;37.20;30.60;;;;;;5083908;28;20040;-79
2022/07/26 07:09:43;;;;;;;22.05;20.15;;;37.20;30.00;;;;;;5086608;28;20113;-79
2022/07/26 07:12:09;;;;;;;19.50;16.17;;;37.40;29.70;;;;;;5086193;28;20420;-80
2022/07/26 07:14:35;;;;;;;4.97;2.25;;;37.80;29.70;;;;;;5084643;28;20059;-80
2022/07/26 07:17:01;;;;;;;4.47;1.92;;;38.40;29.50;;;;;;5087384;28;20375;-79
2022/07/26 07:19:27;;;;;;;7.80;2.05;;;38.70;28.60;;;;;;5085098;28;20102;-79
2022/07/26 07:21:53;;;;;;;9.05;1.90;;;38.90;28.70;;;;;;5086385;28;20036;-79
2022/07/26 07:24:18;;;;;;;8.68;2.47;;;39.10;28.10;;;;;;5084187;28;20044;-80
2022/07/26 07:26:45;;;;;;;10.10;2.35;;;39.10;28.40;;;;;;5087675;28;20035;-78
2022/07/26 07:29:13;;;;;;;7.82;2.63;;;39.10;28.20;;;;;;5125910;27;20528;-80
2022/07/26 07:31:39;;;;;;;5.45;2.08;;;38.90;28.50;;;;;;5102422;27;20064;-80
2022/07/26 07:34:05;;;;;;;4.15;2.40;;;39.00;27.80;;;;;;5128792;27;20042;-79
2022/07/26 07:36:30;;;;;;;6.32;2.35;;;39.10;27.80;;;;;;5104982;27;20296;-79
2022/07/26 07:38:56;;;;;;;3.38;1.90;;;38.90;27.80;;;;;;5106651;27;20509;-79
2022/07/26 07:41:21;;;;;;;3.55;2.38;;;39.10;27.80;;;;;;5127968;27;20447;-79
2022/07/26 07:43:47;;;;;;;4.10;2.35;;;39.20;27.80;;;;;;5133527;27;20038;-81
2022/07/26 07:46:13;;;;;;;10.50;2.45;;;39.30;27.50;;;;;;5129470;27;20559;-80
2022/07/26 07:48:39;;;;;;;17.35;2.53;;;39.40;27.50;;;;;;5137420;27;20035;-79
2022/07/26 07:51:06;;;;;;;6.82;2.20;;;39.60;27.30;;;;;;5109614;27;20049;-79
2022/07/26 07:53:32;;;;;;;6.15;2.28;;;39.70;27.60;;;;;;5100143;27;20035;-80
2022/07/26 07:55:58;;;;;;;7.32;2.50;;;39.90;27.40;;;;;;5095670;27;20054;-81
2022/07/26 07:58:24;;;;;;;6.95;2.35;;;40.00;26.90;;;;;;5139109;27;20744;-80
2022/07/26 08:00:50;;;;;;;9.40;3.42;;;39.90;27.10;;;;;;5132650;27;20507;-80
2022/07/26 08:03:15;;;;;;;7.72;2.90;;;40.10;27.30;;;;;;5126315;27;20497;-80
2022/07/26 08:05:41;;;;;;;5.53;2.90;;;40.10;27.70;;;;;;5106102;27;20112;-80
2022/07/26 08:08:07;;;;;;;3.10;2.13;;;40.20;27.80;;;;;;5109251;27;20511;-79
2022/07/26 08:10:33;;;;;;;5.80;2.65;;;40.20;27.50;;;;;;5109878;27;20036;-80
2022/07/26 08:12:58;;;;;;;5.88;2.20;;;39.90;27.20;;;;;;5131020;27;20030;-80
2022/07/26 08:15:25;;;;;;;6.93;2.35;;;39.50;27.70;;;;;;5127258;27;20495;-79
2022/07/26 08:17:51;;;;;;;6.43;2.45;;;39.40;28.00;;;;;;5129245;27;20368;-79
2022/07/26 08:20:17;;;;;;;12.20;3.10;;;39.50;27.90;;;;;;5135313;27;20038;-81
2022/07/26 08:22:42;;;;;;;4.70;2.58;;;39.50;28.30;;;;;;5133090;27;20223;-80
2022/07/26 08:25:09;;;;;;;9.15;2.70;;;39.60;28.40;;;;;;5114785;27;20930;-79
2022/07/26 08:27:35;;;;;;;8.45;2.70;;;39.60;28.60;;;;;;5143018;27;20549;-79
2022/07/26 08:30:02;;;;;;;11.65;2.83;;;39.50;28.40;;;;;;5127022;27;20499;-81
2022/07/26 08:32:28;;;;;;;10.20;2.53;;;39.80;28.70;;;;;;5124405;27;20030;-80
2022/07/26 08:34:53;;;;;;;5.97;2.95;;;39.80;28.60;;;;;;5111606;27;20031;-80
2022/07/26 08:37:19;;;;;;;10.82;3.08;;;39.90;28.60;;;;;;5111139;27;20027;-80
2022/07/26 08:39:46;;;;;;;7.00;2.70;;;39.90;28.80;;;;;;5101107;28;20570;-80
2022/07/26 08:42:17;;;;;;;7.22;2.90;;;40.20;29.40;;;;;;5088249;28;20016;-78
2022/07/26 08:44:44;;;;;;;9.40;3.03;;;40.50;29.30;;;;;;5107916;28;20154;-79
2022/07/26 08:47:12;;;;;;;4.90;2.75;;;40.90;28.50;;;;;;5102812;28;20085;-80
2022/07/26 08:49:38;;;;;;;19.02;3.25;;;40.70;28.70;;;;;;5090867;28;20055;-80
2022/07/26 08:52:04;;;;;;;5.45;3.25;;;40.50;28.90;;;;;;5070291;28;20125;-80
2022/07/26 08:54:30;;;;;;;11.40;2.63;;;40.70;28.70;;;;;;5107575;28;20254;-80
2022/07/26 08:56:55;;;;;;;8.30;2.70;;;40.60;28.50;;;;;;5109101;28;20264;-77
2022/07/26 08:59:21;;;;;;;6.03;2.85;;;40.20;28.40;;;;;;5109091;28;20027;-80
2022/07/26 09:02:02;;;;;;;9.02;2.90;;;40.10;28.70;;;;;;5090615;28;20476;-79
2022/07/26 09:04:36;;;;;;;9.00;3.10;;;40.30;29.30;;;;;;5107990;28;20055;-79
2022/07/26 09:07:11;;;;;;;6.70;2.80;;;40.20;29.80;;;;;;5088426;28;20464;-80
2022/07/26 09:09:55;;;;;;;5.07;3.30;;;40.10;29.20;;;;;;5088354;28;20024;-80
2022/07/26 09:12:22;;;;;;;6.18;3.05;;;39.90;29.60;;;;;;5086372;28;20062;-80
2022/07/26 09:14:49;;;;;;;4.82;2.80;;;39.70;29.70;;;;;;5089281;28;20519;-78
2022/07/26 09:17:17;;;;;;;9.95;3.28;;;39.50;29.50;;;;;;5106937;28;20066;-79
2022/07/26 09:19:43;;;;;;;4.85;2.65;;;39.70;29.30;;;;;;5104515;28;20029;-79
2022/07/26 09:22:14;;;;;;;6.60;2.55;;;39.90;29.30;;;;;;5088778;28;20069;-79
2022/07/26 09:24:46;;;;;;;5.28;3.03;;;39.80;29.10;;;;;;5106802;28;20046;-80
2022/07/26 09:27:16;;;;;;;4.00;2.53;;;39.50;29.40;;;;;;5107026;28;20106;-80
2022/07/26 09:29:43;;;;;;;8.00;2.95;;;39.10;29.60;;;;;;5084526;28;20032;-79
2022/07/26 09:32:11;;;;;;;9.82;2.85;;;38.70;29.60;;;;;;5107079;28;20375;-80
2022/07/26 09:34:38;;;;;;;10.40;2.83;;;38.50;30.40;;;;;;5088571;28;20070;-80
2022/07/26 09:37:03;;;;;;;4.70;2.78;;;38.50;30.10;;;;;;5088308;28;20419;-78
2022/07/26 09:39:30;;;;;;;5.10;2.90;;;38.70;30.10;;;;;;5106647;28;20027;-80
2022/07/26 09:41:55;;;;;;;10.38;3.10;;;38.80;29.40;;;;;;5106654;28;20030;-79
2022/07/26 09:44:25;;;;;;;4.90;2.63;;;38.60;29.20;;;;;;5107609;28;20039;-78
2022/07/26 09:46:56;;;;;;;7.22;2.50;;;37.90;29.70;;;;;;5088312;28;20038;-79
2022/07/26 09:49:23;;;;;;;8.32;2.67;;;37.50;30.10;;;;;;5105519;27;20087;-80
2022/07/26 09:51:51;;;;;;;7.18;2.63;;;37.40;30.60;;;;;;5109317;27;20023;-79
2022/07/26 09:54:38;;;;;;;4.97;2.15;;;37.20;30.50;;;;;;5128553;27;20513;-80
2022/07/26 09:57:03;;;;;;;7.15;2.88;;;36.90;30.90;;;;;;5110381;27;20066;-78
2022/07/26 09:59:29;;;;;;;7.07;2.50;;;37.00;31.10;;;;;;5127952;27;20515;-80
2022/07/26 10:01:57;;;;;;;4.88;2.70;;;37.20;30.90;;;;;;5109625;27;20503;-80
2022/07/26 10:04:23;;;;;;;4.03;2.83;;;37.50;30.50;;;;;;5091089;28;20231;-80
2022/07/26 10:06:50;;;;;;;7.53;2.42;;;37.90;30.20;;;;;;5107283;28;20046;-80
2022/07/26 10:09:17;;;;;;;5.72;2.85;;;38.50;30.10;;;;;;5107478;28;20031;-80
2022/07/26 10:11:51;;;;;;;5.72;2.80;;;38.80;29.80;;;;;;5107177;28;20089;-80
2022/07/26 10:14:32;;;;;;;5.10;2.63;;;39.00;29.40;;;;;;5107653;28;20044;-79
2022/07/26 10:16:58;;;;;;;5.47;3.08;;;38.80;29.80;;;;;;5107548;28;20085;-79
2022/07/26 10:19:57;;;;;;;7.53;2.35;;;38.70;29.90;;;;;;5107751;28;20096;-79
2022/07/26 10:22:41;;;;;;;5.72;2.70;;;38.40;29.50;;;;;;5088519;28;20042;-79
2022/07/26 10:25:16;;;;;;;3.05;2.45;;;38.40;30.40;;;;;;5088654;28;20396;-79
2022/07/26 10:27:42;;;;;;;6.85;2.72;;;38.50;30.40;;;;;;5107615;28;20439;-78
2022/07/26 10:30:17;;;;;;;5.65;2.50;;;38.40;30.00;;;;;;5107150;28;20074;-80
2022/07/26 10:33:05;;;;;;;3.17;2.58;;;38.10;30.10;;;;;;5089123;28;20024;-79
2022/07/26 10:35:33;;;;;;;6.75;2.78;;;37.90;30.70;;;;;;5106984;28;20055;-78
2022/07/26 10:38:03;;;;;;;9.25;2.83;;;37.70;30.40;;;;;;5088841;28;20020;-79
2022/07/26 10:40:29;;;;;;;5.93;2.55;;;37.50;30.40;;;;;;5087856;28;20130;-77
2022/07/26 10:43:15;;;;;;;3.92;2.30;;;37.30;30.70;;;;;;5088439;28;20122;-78
2022/07/26 10:45:42;;;;;;;6.65;2.60;;;36.70;31.50;;;;;;5088216;28;20031;-78
2022/07/26 10:48:17;;;;;;;6.88;2.92;;;36.30;31.80;;;;;;5088630;28;20027;-79
2022/07/26 10:50:49;;;;;;;5.72;2.65;;;35.70;32.70;;;;;;5088044;28;20092;-80
2022/07/26 10:53:20;;;;;;;5.05;3.10;;;35.30;33.50;;;;;;5088109;28;20019;-79
2022/07/26 10:55:50;;;;;;;7.10;3.00;;;34.70;34.50;;;;;;5089124;28;20092;-78
2022/07/26 10:58:16;;;;;;;12.80;3.05;;;34.00;35.30;;;;;;5088972;28;20042;-79
2022/07/26 11:00:58;;;;;;;7.28;4.22;;;33.50;36.30;;;;;;5106606;28;20012;-79
2022/07/26 11:03:24;;;;;;;5.40;3.40;;;33.10;38.10;;;;;;5088575;28;20043;-79
2022/07/26 11:05:50;;;;;;;15.32;5.03;;;32.60;39.10;;;;;;5106287;28;20112;-79
2022/07/26 11:08:16;;;;;;;10.75;3.70;;;32.30;40.20;;;;;;5088414;28;20059;-79
2022/07/26 11:10:44;;;;;;;11.70;4.65;;;32.00;41.10;;;;;;5106961;28;20114;-79
2022/07/26 11:13:22;;;;;;;16.95;4.57;;;31.70;42.60;;;;;;5106745;28;20066;-81
2022/07/26 11:16:01;;;;;;;10.00;4.97;;;31.30;43.60;;;;;;5088056;28;20038;-80
2022/07/26 11:18:34;;;;;;;9.63;4.97;;;30.90;45.00;;;;;;5106213;28;20028;-79
2022/07/26 11:21:17;;;;;;;19.15;5.97;;;30.50;48.80;;;;;;5087784;28;20032;-79
2022/07/26 11:23:47;;;;;;;14.50;6.15;;;30.00;52.50;;;;;;5106826;28;20031;-80
2022/07/26 11:26:22;;;;;;;11.10;6.38;;;29.40;56.60;;;;;;5088366;28;20214;-82
2022/07/26 11:29:02;;;;;;;9.05;6.03;;;28.80;60.40;;;;;;5106683;28;20055;-80
2022/07/26 11:31:33;;;;;;;8.65;6.85;;;28.10;64.00;;;;;;5088518;28;20064;-81
2022/07/26 11:33:59;;;;;;;14.15;6.95;;;27.60;67.30;;;;;;5087974;28;20062;-81
2022/07/26 11:36:43;;;;;;;10.07;7.03;;;27.20;71.90;;;;;;5087606;28;20051;-80
2022/07/26 11:39:12;;;;;;;12.60;7.60;;;26.80;76.60;;;;;;5088411;28;20052;-79
2022/07/26 11:41:39;;;;;;;13.18;8.00;;;26.50;84.30;;;;;;5099370;28;20431;-80
2022/07/26 11:44:05;;;;;;;15.43;9.63;;;26.20;89.50;;;;;;5076194;28;20039;-79
2022/07/26 11:46:37;;;;;;;14.15;8.95;;;25.90;95.50;;;;;;5078654;28;20032;-79
2022/07/26 11:49:10;;;;;;;13.27;9.40;;;25.60;98.40;;;;;;5088400;28;20028;-80
2022/07/26 11:51:36;;;;;;;15.02;9.05;;;25.40;99.90;;;;;;5105475;28;20031;-80
2022/07/26 11:54:02;;;;;;;12.02;9.38;;;25.40;99.90;;;;;;5091535;28;20028;-79
2022/07/26 11:56:30;;;;;;;10.18;9.10;;;25.40;99.90;;;;;;5092412;28;20111;-80
2022/07/26 11:58:56;;;;;;;12.85;8.85;;;25.50;99.90;;;;;;5091313;28;20053;-79
2022/07/26 12:01:24;;;;;;;11.30;9.18;;;25.50;99.90;;;;;;5101662;28;20085;-78
2022/07/26 12:03:52;;;;;;;13.60;9.40;;;25.50;99.90;;;;;;5091266;28;20055;-79
2022/07/26 12:06:19;;;;;;;10.90;9.43;;;25.50;99.90;;;;;;5091394;28;20030;-81
2022/07/26 12:08:54;;;;;;;15.05;9.80;;;25.50;99.90;;;;;;5091719;28;20047;-80
2022/07/26 12:11:21;;;;;;;13.88;9.73;;;25.70;99.90;;;;;;5110002;28;20027;-80
2022/07/26 12:13:47;;;;;;;15.52;9.88;;;25.50;99.90;;;;;;5109887;28;20046;-81
2022/07/26 12:16:32;;;;;;;13.13;8.98;;;25.50;99.90;;;;;;5091387;28;20019;-80
2022/07/26 12:18:57;;;;;;;15.73;10.32;;;25.40;99.90;;;;;;5109993;28;20115;-80
2022/07/26 12:21:40;;;;;;;12.18;10.82;;;25.50;99.90;;;;;;5109760;28;20123;-80
2022/07/26 12:24:06;;;;;;;14.80;11.20;;;25.40;99.90;;;;;;5091633;28;20034;-80
2022/07/26 12:26:32;;;;;;;14.13;11.75;;;25.30;99.90;;;;;;5091230;28;20328;-78
2022/07/26 12:31:43;;;;;;;15.63;10.52;;;25.20;99.90;;;;;;5103856;28;20089;-79
2022/07/26 12:34:09;;;;;;;13.45;11.15;;;25.20;99.90;;;;;;5085417;28;20036;-79
2022/07/26 12:36:35;;;;;;;17.65;11.23;;;25.20;99.90;;;;;;5098040;28;20028;-80
2022/07/26 12:39:01;;;;;;;15.07;12.05;;;25.30;99.90;;;;;;5089400;28;20532;-79
2022/07/26 12:41:38;;;;;;;15.10;11.07;;;25.40;99.90;;;;;;5100782;28;20023;-78
2022/07/26 12:44:05;;;;;;;12.13;10.35;;;25.50;99.90;;;;;;5091637;28;20069;-80
2022/07/26 12:46:35;;;;;;;12.90;11.02;;;25.60;99.90;;;;;;5091293;28;20088;-78
2022/07/26 12:49:02;;;;;;;15.07;11.00;;;25.70;99.90;;;;;;5089985;28;20039;-79